<?xml version="1.0" encoding="UTF-8" standalone="no" ?>
<gpx xmlns="http://www.topografix.com/GPX/1/1" xmlns:xsi="http://www.w3.org/2001/XMLSchema-instance" xsi:schemaLocation="http://www.topografix.com/GPX/1/1 http://www.topografix.com/GPX/1/1/gpx.xsd" version="1.1" creator="VisuGPX - https://www.visugpx.com">
  <metadata>
    <name>Col des planchettes, vestiges romain et Montoncel</name>
    <desc><![CDATA[Circuit non balisé, bien qu'empruntant une bonne partie du GR 3 et GR 3A - A faire avec la carte en main ou appli GPS rando.
Vestiges d'un aqueduc romain au pk 5 sur le chemin et fossé du chemin forestier.]]></desc>
  </metadata>
  <trk>
    <name><![CDATA[Montoncel et vestiges romains-20720087]]></name>
    <trkseg>
      <trkpt lat="45.92069" lon="3.7249">
        <ele>1114</ele>
        <time>2025-02-17T07:12:06Z</time>
      </trkpt>
      <trkpt lat="45.92092" lon="3.72473">
        <ele>1116</ele>
        <time>2025-02-17T07:12:41Z</time>
      </trkpt>
      <trkpt lat="45.92098" lon="3.72471">
        <ele>1117</ele>
        <time>2025-02-17T07:12:49Z</time>
      </trkpt>
      <trkpt lat="45.92103" lon="3.72465">
        <ele>1118</ele>
        <time>2025-02-17T07:12:57Z</time>
      </trkpt>
      <trkpt lat="45.9211" lon="3.72464">
        <ele>1119</ele>
        <time>2025-02-17T07:13:07Z</time>
      </trkpt>
      <trkpt lat="45.9212" lon="3.72453">
        <ele>1120</ele>
        <time>2025-02-17T07:13:24Z</time>
      </trkpt>
      <trkpt lat="45.92133" lon="3.72429">
        <ele>1122</ele>
        <time>2025-02-17T07:13:52Z</time>
      </trkpt>
      <trkpt lat="45.92157" lon="3.72401">
        <ele>1124</ele>
        <time>2025-02-17T07:14:33Z</time>
      </trkpt>
      <trkpt lat="45.92174" lon="3.72362">
        <ele>1124</ele>
        <time>2025-02-17T07:15:16Z</time>
      </trkpt>
      <trkpt lat="45.92195" lon="3.72332">
        <ele>1125</ele>
        <time>2025-02-17T07:15:55Z</time>
      </trkpt>
      <trkpt lat="45.92196" lon="3.72322">
        <ele>1125</ele>
        <time>2025-02-17T07:16:05Z</time>
      </trkpt>
      <trkpt lat="45.92204" lon="3.72308">
        <ele>1125</ele>
        <time>2025-02-17T07:16:22Z</time>
      </trkpt>
      <trkpt lat="45.92205" lon="3.723">
        <ele>1125</ele>
        <time>2025-02-17T07:16:29Z</time>
      </trkpt>
      <trkpt lat="45.92213" lon="3.72284">
        <ele>1125</ele>
        <time>2025-02-17T07:16:47Z</time>
      </trkpt>
      <trkpt lat="45.92214" lon="3.72272">
        <ele>1125</ele>
        <time>2025-02-17T07:16:59Z</time>
      </trkpt>
      <trkpt lat="45.92223" lon="3.72258">
        <ele>1124</ele>
        <time>2025-02-17T07:17:16Z</time>
      </trkpt>
      <trkpt lat="45.92228" lon="3.72233">
        <ele>1124</ele>
        <time>2025-02-17T07:17:40Z</time>
      </trkpt>
      <trkpt lat="45.92263" lon="3.72165">
        <ele>1124</ele>
        <time>2025-02-17T07:18:59Z</time>
      </trkpt>
      <trkpt lat="45.92287" lon="3.72109">
        <ele>1126</ele>
        <time>2025-02-17T07:20:00Z</time>
      </trkpt>
      <trkpt lat="45.92293" lon="3.72104">
        <ele>1126</ele>
        <time>2025-02-17T07:20:09Z</time>
      </trkpt>
      <trkpt lat="45.92303" lon="3.72082">
        <ele>1127</ele>
        <time>2025-02-17T07:20:34Z</time>
      </trkpt>
      <trkpt lat="45.92375" lon="3.71901">
        <ele>1136</ele>
        <time>2025-02-17T07:23:47Z</time>
      </trkpt>
      <trkpt lat="45.92388" lon="3.71875">
        <ele>1139</ele>
        <time>2025-02-17T07:24:17Z</time>
      </trkpt>
      <trkpt lat="45.92396" lon="3.71843">
        <ele>1143</ele>
        <time>2025-02-17T07:24:49Z</time>
      </trkpt>
      <trkpt lat="45.92402" lon="3.71792">
        <ele>1147</ele>
        <time>2025-02-17T07:25:37Z</time>
      </trkpt>
      <trkpt lat="45.92407" lon="3.7178">
        <ele>1148</ele>
        <time>2025-02-17T07:25:49Z</time>
      </trkpt>
      <trkpt lat="45.92403" lon="3.71672">
        <ele>1154</ele>
        <time>2025-02-17T07:27:30Z</time>
      </trkpt>
      <trkpt lat="45.92411" lon="3.71619">
        <ele>1157</ele>
        <time>2025-02-17T07:28:20Z</time>
      </trkpt>
      <trkpt lat="45.92418" lon="3.71596">
        <ele>1159</ele>
        <time>2025-02-17T07:28:44Z</time>
      </trkpt>
      <trkpt lat="45.92427" lon="3.71548">
        <ele>1161</ele>
        <time>2025-02-17T07:29:30Z</time>
      </trkpt>
      <trkpt lat="45.92438" lon="3.71519">
        <ele>1162</ele>
        <time>2025-02-17T07:30:00Z</time>
      </trkpt>
      <trkpt lat="45.92453" lon="3.71505">
        <ele>1164</ele>
        <time>2025-02-17T07:30:24Z</time>
      </trkpt>
      <trkpt lat="45.92464" lon="3.71487">
        <ele>1166</ele>
        <time>2025-02-17T07:30:46Z</time>
      </trkpt>
      <trkpt lat="45.92472" lon="3.7148">
        <ele>1167</ele>
        <time>2025-02-17T07:30:59Z</time>
      </trkpt>
      <trkpt lat="45.92485" lon="3.71445">
        <ele>1170</ele>
        <time>2025-02-17T07:31:36Z</time>
      </trkpt>
      <trkpt lat="45.92506" lon="3.71409">
        <ele>1174</ele>
        <time>2025-02-17T07:32:19Z</time>
      </trkpt>
      <trkpt lat="45.92519" lon="3.71366">
        <ele>1178</ele>
        <time>2025-02-17T07:33:03Z</time>
      </trkpt>
      <trkpt lat="45.9253" lon="3.71312">
        <ele>1180</ele>
        <time>2025-02-17T07:33:55Z</time>
      </trkpt>
      <trkpt lat="45.92539" lon="3.71291">
        <ele>1181</ele>
        <time>2025-02-17T07:34:18Z</time>
      </trkpt>
      <trkpt lat="45.92561" lon="3.71182">
        <ele>1180</ele>
        <time>2025-02-17T07:36:03Z</time>
      </trkpt>
      <trkpt lat="45.92584" lon="3.7113">
        <ele>1181</ele>
        <time>2025-02-17T07:37:01Z</time>
      </trkpt>
      <trkpt lat="45.92609" lon="3.71086">
        <ele>1182</ele>
        <time>2025-02-17T07:37:53Z</time>
      </trkpt>
      <trkpt lat="45.92615" lon="3.7108">
        <ele>1183</ele>
        <time>2025-02-17T07:38:03Z</time>
      </trkpt>
      <trkpt lat="45.92628" lon="3.71048">
        <ele>1183</ele>
        <time>2025-02-17T07:38:37Z</time>
      </trkpt>
      <trkpt lat="45.92648" lon="3.71012">
        <ele>1184</ele>
        <time>2025-02-17T07:39:20Z</time>
      </trkpt>
      <trkpt lat="45.92666" lon="3.70971">
        <ele>1181</ele>
        <time>2025-02-17T07:40:05Z</time>
      </trkpt>
      <trkpt lat="45.92693" lon="3.70932">
        <ele>1179</ele>
        <time>2025-02-17T07:40:56Z</time>
      </trkpt>
      <trkpt lat="45.92705" lon="3.70922">
        <ele>1179</ele>
        <time>2025-02-17T07:41:15Z</time>
      </trkpt>
      <trkpt lat="45.92748" lon="3.70897">
        <ele>1180</ele>
        <time>2025-02-17T07:42:17Z</time>
      </trkpt>
      <trkpt lat="45.92774" lon="3.70889">
        <ele>1180</ele>
        <time>2025-02-17T07:42:52Z</time>
      </trkpt>
      <trkpt lat="45.92782" lon="3.70884">
        <ele>1180</ele>
        <time>2025-02-17T07:43:04Z</time>
      </trkpt>
      <trkpt lat="45.9279" lon="3.70885">
        <ele>1180</ele>
        <time>2025-02-17T07:43:15Z</time>
      </trkpt>
      <trkpt lat="45.92802" lon="3.70882">
        <ele>1180</ele>
        <time>2025-02-17T07:43:31Z</time>
      </trkpt>
      <trkpt lat="45.92823" lon="3.70869">
        <ele>1180</ele>
        <time>2025-02-17T07:44:01Z</time>
      </trkpt>
      <trkpt lat="45.92856" lon="3.70857">
        <ele>1179</ele>
        <time>2025-02-17T07:44:47Z</time>
      </trkpt>
      <trkpt lat="45.92866" lon="3.70856">
        <ele>1178</ele>
        <time>2025-02-17T07:45:00Z</time>
      </trkpt>
      <trkpt lat="45.92882" lon="3.70848">
        <ele>1177</ele>
        <time>2025-02-17T07:45:23Z</time>
      </trkpt>
      <trkpt lat="45.92906" lon="3.70845">
        <ele>1176</ele>
        <time>2025-02-17T07:45:55Z</time>
      </trkpt>
      <trkpt lat="45.92916" lon="3.70848">
        <ele>1176</ele>
        <time>2025-02-17T07:46:09Z</time>
      </trkpt>
      <trkpt lat="45.92953" lon="3.70807">
        <ele>1176</ele>
        <time>2025-02-17T07:47:11Z</time>
      </trkpt>
      <trkpt lat="45.9296" lon="3.70791">
        <ele>1177</ele>
        <time>2025-02-17T07:47:28Z</time>
      </trkpt>
      <trkpt lat="45.92972" lon="3.70773">
        <ele>1177</ele>
        <time>2025-02-17T07:47:52Z</time>
      </trkpt>
      <trkpt lat="45.92986" lon="3.70758">
        <ele>1178</ele>
        <time>2025-02-17T07:48:15Z</time>
      </trkpt>
      <trkpt lat="45.92993" lon="3.70744">
        <ele>1179</ele>
        <time>2025-02-17T07:48:31Z</time>
      </trkpt>
      <trkpt lat="45.93005" lon="3.70736">
        <ele>1180</ele>
        <time>2025-02-17T07:48:49Z</time>
      </trkpt>
      <trkpt lat="45.93019" lon="3.70722">
        <ele>1183</ele>
        <time>2025-02-17T07:49:11Z</time>
      </trkpt>
      <trkpt lat="45.93043" lon="3.70727">
        <ele>1185</ele>
        <time>2025-02-17T07:49:44Z</time>
      </trkpt>
      <trkpt lat="45.93053" lon="3.70726">
        <ele>1187</ele>
        <time>2025-02-17T07:49:57Z</time>
      </trkpt>
      <trkpt lat="45.93071" lon="3.70733">
        <ele>1188</ele>
        <time>2025-02-17T07:50:22Z</time>
      </trkpt>
      <trkpt lat="45.93089" lon="3.70744">
        <ele>1189</ele>
        <time>2025-02-17T07:50:48Z</time>
      </trkpt>
      <trkpt lat="45.93111" lon="3.70746">
        <ele>1191</ele>
        <time>2025-02-17T07:51:17Z</time>
      </trkpt>
      <trkpt lat="45.93122" lon="3.7075">
        <ele>1191</ele>
        <time>2025-02-17T07:51:33Z</time>
      </trkpt>
      <trkpt lat="45.9314" lon="3.70748">
        <ele>1192</ele>
        <time>2025-02-17T07:51:57Z</time>
      </trkpt>
      <trkpt lat="45.93158" lon="3.70757">
        <ele>1192</ele>
        <time>2025-02-17T07:52:22Z</time>
      </trkpt>
      <trkpt lat="45.93168" lon="3.70754">
        <ele>1193</ele>
        <time>2025-02-17T07:52:36Z</time>
      </trkpt>
      <trkpt lat="45.93178" lon="3.70755">
        <ele>1194</ele>
        <time>2025-02-17T07:52:49Z</time>
      </trkpt>
      <trkpt lat="45.93185" lon="3.70753">
        <ele>1194</ele>
        <time>2025-02-17T07:52:59Z</time>
      </trkpt>
      <trkpt lat="45.93211" lon="3.70738">
        <ele>1197</ele>
        <time>2025-02-17T07:53:36Z</time>
      </trkpt>
      <trkpt lat="45.93245" lon="3.70713">
        <ele>1200</ele>
        <time>2025-02-17T07:54:27Z</time>
      </trkpt>
      <trkpt lat="45.93253" lon="3.70704">
        <ele>1200</ele>
        <time>2025-02-17T07:54:41Z</time>
      </trkpt>
      <trkpt lat="45.93268" lon="3.70695">
        <ele>1199</ele>
        <time>2025-02-17T07:55:02Z</time>
      </trkpt>
      <trkpt lat="45.93311" lon="3.70652">
        <ele>1196</ele>
        <time>2025-02-17T07:56:12Z</time>
      </trkpt>
      <trkpt lat="45.93326" lon="3.70633">
        <ele>1196</ele>
        <time>2025-02-17T07:56:39Z</time>
      </trkpt>
      <trkpt lat="45.93333" lon="3.70628">
        <ele>1195</ele>
        <time>2025-02-17T07:56:49Z</time>
      </trkpt>
      <trkpt lat="45.93338" lon="3.70617">
        <ele>1196</ele>
        <time>2025-02-17T07:57:01Z</time>
      </trkpt>
      <trkpt lat="45.9334" lon="3.70615">
        <ele>1196</ele>
        <time>2025-02-17T07:57:05Z</time>
      </trkpt>
      <trkpt lat="45.93345" lon="3.70617">
        <ele>1196</ele>
        <time>2025-02-17T07:57:12Z</time>
      </trkpt>
      <trkpt lat="45.93355" lon="3.70604">
        <ele>1197</ele>
        <time>2025-02-17T07:57:30Z</time>
      </trkpt>
      <trkpt lat="45.93368" lon="3.70572">
        <ele>1199</ele>
        <time>2025-02-17T07:58:04Z</time>
      </trkpt>
      <trkpt lat="45.93375" lon="3.70536">
        <ele>1201</ele>
        <time>2025-02-17T07:58:39Z</time>
      </trkpt>
      <trkpt lat="45.93384" lon="3.70524">
        <ele>1201</ele>
        <time>2025-02-17T07:58:55Z</time>
      </trkpt>
      <trkpt lat="45.93393" lon="3.70519">
        <ele>1201</ele>
        <time>2025-02-17T07:59:08Z</time>
      </trkpt>
      <trkpt lat="45.93399" lon="3.70484">
        <ele>1201</ele>
        <time>2025-02-17T07:59:41Z</time>
      </trkpt>
      <trkpt lat="45.93413" lon="3.70461">
        <ele>1199</ele>
        <time>2025-02-17T08:00:10Z</time>
      </trkpt>
      <trkpt lat="45.93416" lon="3.70429">
        <ele>1198</ele>
        <time>2025-02-17T08:00:40Z</time>
      </trkpt>
      <trkpt lat="45.93433" lon="3.70387">
        <ele>1196</ele>
        <time>2025-02-17T08:01:25Z</time>
      </trkpt>
      <trkpt lat="45.93462" lon="3.7024">
        <ele>1196</ele>
        <time>2025-02-17T08:03:47Z</time>
      </trkpt>
      <trkpt lat="45.93463" lon="3.7021">
        <ele>1197</ele>
        <time>2025-02-17T08:04:14Z</time>
      </trkpt>
      <trkpt lat="45.9347" lon="3.70174">
        <ele>1197</ele>
        <time>2025-02-17T08:04:49Z</time>
      </trkpt>
      <trkpt lat="45.9347" lon="3.7014">
        <ele>1197</ele>
        <time>2025-02-17T08:05:21Z</time>
      </trkpt>
      <trkpt lat="45.93475" lon="3.70102">
        <ele>1196</ele>
        <time>2025-02-17T08:05:57Z</time>
      </trkpt>
      <trkpt lat="45.93479" lon="3.70089">
        <ele>1196</ele>
        <time>2025-02-17T08:06:10Z</time>
      </trkpt>
      <trkpt lat="45.9348" lon="3.7007">
        <ele>1195</ele>
        <time>2025-02-17T08:06:27Z</time>
      </trkpt>
      <trkpt lat="45.93487" lon="3.70039">
        <ele>1192</ele>
        <time>2025-02-17T08:06:58Z</time>
      </trkpt>
      <trkpt lat="45.93488" lon="3.69997">
        <ele>1191</ele>
        <time>2025-02-17T08:07:37Z</time>
      </trkpt>
      <trkpt lat="45.93493" lon="3.6997">
        <ele>1189</ele>
        <time>2025-02-17T08:08:03Z</time>
      </trkpt>
      <trkpt lat="45.93493" lon="3.69945">
        <ele>1188</ele>
        <time>2025-02-17T08:08:26Z</time>
      </trkpt>
      <trkpt lat="45.93489" lon="3.69926">
        <ele>1189</ele>
        <time>2025-02-17T08:08:44Z</time>
      </trkpt>
      <trkpt lat="45.93478" lon="3.69904">
        <ele>1192</ele>
        <time>2025-02-17T08:09:09Z</time>
      </trkpt>
      <trkpt lat="45.93466" lon="3.69895">
        <ele>1195</ele>
        <time>2025-02-17T08:09:28Z</time>
      </trkpt>
      <trkpt lat="45.9347" lon="3.69894">
        <ele>1195</ele>
        <time>2025-02-17T08:09:33Z</time>
      </trkpt>
      <trkpt lat="45.93472" lon="3.6989">
        <ele>1195</ele>
        <time>2025-02-17T08:09:38Z</time>
      </trkpt>
      <trkpt lat="45.93473" lon="3.69865">
        <ele>1196</ele>
        <time>2025-02-17T08:10:01Z</time>
      </trkpt>
      <trkpt lat="45.93481" lon="3.69866">
        <ele>1194</ele>
        <time>2025-02-17T08:10:11Z</time>
      </trkpt>
      <trkpt lat="45.93488" lon="3.69857">
        <ele>1194</ele>
        <time>2025-02-17T08:10:24Z</time>
      </trkpt>
      <trkpt lat="45.93488" lon="3.69848">
        <ele>1195</ele>
        <time>2025-02-17T08:10:32Z</time>
      </trkpt>
      <trkpt lat="45.93493" lon="3.69848">
        <ele>1194</ele>
        <time>2025-02-17T08:10:39Z</time>
      </trkpt>
      <trkpt lat="45.9349" lon="3.69839">
        <ele>1195</ele>
        <time>2025-02-17T08:10:48Z</time>
      </trkpt>
      <trkpt lat="45.93495" lon="3.69826">
        <ele>1195</ele>
        <time>2025-02-17T08:11:02Z</time>
      </trkpt>
      <trkpt lat="45.93496" lon="3.69799">
        <ele>1198</ele>
        <time>2025-02-17T08:11:27Z</time>
      </trkpt>
      <trkpt lat="45.93494" lon="3.69785">
        <ele>1199</ele>
        <time>2025-02-17T08:11:40Z</time>
      </trkpt>
      <trkpt lat="45.93497" lon="3.69772">
        <ele>1200</ele>
        <time>2025-02-17T08:11:53Z</time>
      </trkpt>
      <trkpt lat="45.93504" lon="3.69748">
        <ele>1202</ele>
        <time>2025-02-17T08:12:17Z</time>
      </trkpt>
      <trkpt lat="45.9351" lon="3.69739">
        <ele>1202</ele>
        <time>2025-02-17T08:12:29Z</time>
      </trkpt>
      <trkpt lat="45.93516" lon="3.69736">
        <ele>1201</ele>
        <time>2025-02-17T08:12:37Z</time>
      </trkpt>
      <trkpt lat="45.93522" lon="3.69728">
        <ele>1201</ele>
        <time>2025-02-17T08:12:48Z</time>
      </trkpt>
      <trkpt lat="45.93536" lon="3.69696">
        <ele>1202</ele>
        <time>2025-02-17T08:13:23Z</time>
      </trkpt>
      <trkpt lat="45.9356" lon="3.6968">
        <ele>1201</ele>
        <time>2025-02-17T08:13:59Z</time>
      </trkpt>
      <trkpt lat="45.93572" lon="3.69661">
        <ele>1201</ele>
        <time>2025-02-17T08:14:22Z</time>
      </trkpt>
      <trkpt lat="45.93614" lon="3.69611">
        <ele>1199</ele>
        <time>2025-02-17T08:15:35Z</time>
      </trkpt>
      <trkpt lat="45.93618" lon="3.696">
        <ele>1198</ele>
        <time>2025-02-17T08:15:47Z</time>
      </trkpt>
      <trkpt lat="45.93648" lon="3.69576">
        <ele>1196</ele>
        <time>2025-02-17T08:16:33Z</time>
      </trkpt>
      <trkpt lat="45.93652" lon="3.69575">
        <ele>1196</ele>
        <time>2025-02-17T08:16:38Z</time>
      </trkpt>
      <trkpt lat="45.93662" lon="3.69561">
        <ele>1195</ele>
        <time>2025-02-17T08:16:57Z</time>
      </trkpt>
      <trkpt lat="45.93668" lon="3.69542">
        <ele>1195</ele>
        <time>2025-02-17T08:17:16Z</time>
      </trkpt>
      <trkpt lat="45.93667" lon="3.69496">
        <ele>1197</ele>
        <time>2025-02-17T08:17:59Z</time>
      </trkpt>
      <trkpt lat="45.93672" lon="3.69477">
        <ele>1198</ele>
        <time>2025-02-17T08:18:18Z</time>
      </trkpt>
      <trkpt lat="45.93672" lon="3.69451">
        <ele>1199</ele>
        <time>2025-02-17T08:18:42Z</time>
      </trkpt>
      <trkpt lat="45.93678" lon="3.69405">
        <ele>1201</ele>
        <time>2025-02-17T08:19:25Z</time>
      </trkpt>
      <trkpt lat="45.9367" lon="3.69316">
        <ele>1202</ele>
        <time>2025-02-17T08:20:48Z</time>
      </trkpt>
      <trkpt lat="45.9367" lon="3.69278">
        <ele>1202</ele>
        <time>2025-02-17T08:21:24Z</time>
      </trkpt>
      <trkpt lat="45.93675" lon="3.69255">
        <ele>1201</ele>
        <time>2025-02-17T08:21:46Z</time>
      </trkpt>
      <trkpt lat="45.93677" lon="3.69225">
        <ele>1200</ele>
        <time>2025-02-17T08:22:14Z</time>
      </trkpt>
      <trkpt lat="45.93669" lon="3.69194">
        <ele>1200</ele>
        <time>2025-02-17T08:22:45Z</time>
      </trkpt>
      <trkpt lat="45.9367" lon="3.69165">
        <ele>1199</ele>
        <time>2025-02-17T08:23:12Z</time>
      </trkpt>
      <trkpt lat="45.93668" lon="3.69156">
        <ele>1200</ele>
        <time>2025-02-17T08:23:20Z</time>
      </trkpt>
      <trkpt lat="45.93675" lon="3.69129">
        <ele>1199</ele>
        <time>2025-02-17T08:23:47Z</time>
      </trkpt>
      <trkpt lat="45.93685" lon="3.6911">
        <ele>1198</ele>
        <time>2025-02-17T08:24:09Z</time>
      </trkpt>
      <trkpt lat="45.93696" lon="3.69079">
        <ele>1196</ele>
        <time>2025-02-17T08:24:42Z</time>
      </trkpt>
      <trkpt lat="45.93724" lon="3.69033">
        <ele>1192</ele>
        <time>2025-02-17T08:25:38Z</time>
      </trkpt>
      <trkpt lat="45.93741" lon="3.69013">
        <ele>1191</ele>
        <time>2025-02-17T08:26:08Z</time>
      </trkpt>
      <trkpt lat="45.93745" lon="3.69005">
        <ele>1190</ele>
        <time>2025-02-17T08:26:17Z</time>
      </trkpt>
      <trkpt lat="45.93757" lon="3.68998">
        <ele>1189</ele>
        <time>2025-02-17T08:26:34Z</time>
      </trkpt>
      <trkpt lat="45.93774" lon="3.68978">
        <ele>1188</ele>
        <time>2025-02-17T08:27:03Z</time>
      </trkpt>
      <trkpt lat="45.9378" lon="3.68974">
        <ele>1187</ele>
        <time>2025-02-17T08:27:12Z</time>
      </trkpt>
      <trkpt lat="45.93801" lon="3.68947">
        <ele>1185</ele>
        <time>2025-02-17T08:27:50Z</time>
      </trkpt>
      <trkpt lat="45.93827" lon="3.68927">
        <ele>1183</ele>
        <time>2025-02-17T08:28:29Z</time>
      </trkpt>
      <trkpt lat="45.93971" lon="3.68867">
        <ele>1171</ele>
        <time>2025-02-17T08:31:49Z</time>
      </trkpt>
      <trkpt lat="45.94037" lon="3.68819">
        <ele>1169</ele>
        <time>2025-02-17T08:33:28Z</time>
      </trkpt>
      <trkpt lat="45.94124" lon="3.68662">
        <ele>1171</ele>
        <time>2025-02-17T08:36:34Z</time>
      </trkpt>
      <trkpt lat="45.94189" lon="3.68598">
        <ele>1170</ele>
        <time>2025-02-17T08:38:19Z</time>
      </trkpt>
      <trkpt lat="45.94218" lon="3.68534">
        <ele>1166</ele>
        <time>2025-02-17T08:39:30Z</time>
      </trkpt>
      <trkpt lat="45.94258" lon="3.6846">
        <ele>1162</ele>
        <time>2025-02-17T08:40:57Z</time>
      </trkpt>
      <trkpt lat="45.94279" lon="3.68346">
        <ele>1152</ele>
        <time>2025-02-17T08:42:47Z</time>
      </trkpt>
      <trkpt lat="45.94207" lon="3.68292">
        <ele>1149</ele>
        <time>2025-02-17T08:44:35Z</time>
      </trkpt>
      <trkpt lat="45.9409" lon="3.68062">
        <ele>1124</ele>
        <time>2025-02-17T08:48:59Z</time>
      </trkpt>
      <trkpt lat="45.94074" lon="3.67978">
        <ele>1115</ele>
        <time>2025-02-17T08:50:20Z</time>
      </trkpt>
      <trkpt lat="45.94081" lon="3.67934">
        <ele>1112</ele>
        <time>2025-02-17T08:51:02Z</time>
      </trkpt>
      <trkpt lat="45.94125" lon="3.6782">
        <ele>1109</ele>
        <time>2025-02-17T08:53:03Z</time>
      </trkpt>
      <trkpt lat="45.94127" lon="3.67775">
        <ele>1108</ele>
        <time>2025-02-17T08:53:45Z</time>
      </trkpt>
      <trkpt lat="45.94105" lon="3.67713">
        <ele>1107</ele>
        <time>2025-02-17T08:54:50Z</time>
      </trkpt>
      <trkpt lat="45.94085" lon="3.67693">
        <ele>1106</ele>
        <time>2025-02-17T08:55:22Z</time>
      </trkpt>
      <trkpt lat="45.94087" lon="3.67712">
        <ele>1104</ele>
        <time>2025-02-17T08:55:40Z</time>
      </trkpt>
      <trkpt lat="45.94103" lon="3.67734">
        <ele>1105</ele>
        <time>2025-02-17T08:56:09Z</time>
      </trkpt>
      <trkpt lat="45.94118" lon="3.67789">
        <ele>1107</ele>
        <time>2025-02-17T08:57:04Z</time>
      </trkpt>
      <trkpt lat="45.94115" lon="3.67823">
        <ele>1107</ele>
        <time>2025-02-17T08:57:36Z</time>
      </trkpt>
      <trkpt lat="45.94092" lon="3.67883">
        <ele>1108</ele>
        <time>2025-02-17T08:58:40Z</time>
      </trkpt>
      <trkpt lat="45.94067" lon="3.6796">
        <ele>1112</ele>
        <time>2025-02-17T08:59:58Z</time>
      </trkpt>
      <trkpt lat="45.94079" lon="3.68058">
        <ele>1121</ele>
        <time>2025-02-17T09:01:31Z</time>
      </trkpt>
      <trkpt lat="45.94204" lon="3.68306">
        <ele>1150</ele>
        <time>2025-02-17T09:06:15Z</time>
      </trkpt>
      <trkpt lat="45.94272" lon="3.68351">
        <ele>1153</ele>
        <time>2025-02-17T09:07:55Z</time>
      </trkpt>
      <trkpt lat="45.94255" lon="3.68443">
        <ele>1161</ele>
        <time>2025-02-17T09:09:23Z</time>
      </trkpt>
      <trkpt lat="45.94211" lon="3.68516">
        <ele>1165</ele>
        <time>2025-02-17T09:10:53Z</time>
      </trkpt>
      <trkpt lat="45.94187" lon="3.68576">
        <ele>1168</ele>
        <time>2025-02-17T09:11:57Z</time>
      </trkpt>
      <trkpt lat="45.94117" lon="3.68648">
        <ele>1169</ele>
        <time>2025-02-17T09:13:52Z</time>
      </trkpt>
      <trkpt lat="45.94036" lon="3.68805">
        <ele>1169</ele>
        <time>2025-02-17T09:16:53Z</time>
      </trkpt>
      <trkpt lat="45.93975" lon="3.68849">
        <ele>1171</ele>
        <time>2025-02-17T09:18:24Z</time>
      </trkpt>
      <trkpt lat="45.93776" lon="3.68944">
        <ele>1188</ele>
        <time>2025-02-17T09:23:04Z</time>
      </trkpt>
      <trkpt lat="45.9376" lon="3.68945">
        <ele>1189</ele>
        <time>2025-02-17T09:23:26Z</time>
      </trkpt>
      <trkpt lat="45.93745" lon="3.6895">
        <ele>1190</ele>
        <time>2025-02-17T09:23:46Z</time>
      </trkpt>
      <trkpt lat="45.93736" lon="3.68956">
        <ele>1191</ele>
        <time>2025-02-17T09:23:59Z</time>
      </trkpt>
      <trkpt lat="45.93719" lon="3.68959">
        <ele>1193</ele>
        <time>2025-02-17T09:24:22Z</time>
      </trkpt>
      <trkpt lat="45.93696" lon="3.68973">
        <ele>1196</ele>
        <time>2025-02-17T09:24:56Z</time>
      </trkpt>
      <trkpt lat="45.93674" lon="3.68981">
        <ele>1198</ele>
        <time>2025-02-17T09:25:26Z</time>
      </trkpt>
      <trkpt lat="45.93639" lon="3.69">
        <ele>1201</ele>
        <time>2025-02-17T09:26:16Z</time>
      </trkpt>
      <trkpt lat="45.93595" lon="3.68999">
        <ele>1203</ele>
        <time>2025-02-17T09:27:15Z</time>
      </trkpt>
      <trkpt lat="45.93589" lon="3.68995">
        <ele>1203</ele>
        <time>2025-02-17T09:27:23Z</time>
      </trkpt>
      <trkpt lat="45.93579" lon="3.68996">
        <ele>1203</ele>
        <time>2025-02-17T09:27:37Z</time>
      </trkpt>
      <trkpt lat="45.93567" lon="3.68991">
        <ele>1203</ele>
        <time>2025-02-17T09:27:53Z</time>
      </trkpt>
      <trkpt lat="45.93554" lon="3.6899">
        <ele>1204</ele>
        <time>2025-02-17T09:28:11Z</time>
      </trkpt>
      <trkpt lat="45.93539" lon="3.68994">
        <ele>1205</ele>
        <time>2025-02-17T09:28:31Z</time>
      </trkpt>
      <trkpt lat="45.93521" lon="3.69003">
        <ele>1206</ele>
        <time>2025-02-17T09:28:57Z</time>
      </trkpt>
      <trkpt lat="45.93515" lon="3.69008">
        <ele>1207</ele>
        <time>2025-02-17T09:29:06Z</time>
      </trkpt>
      <trkpt lat="45.93509" lon="3.69019">
        <ele>1208</ele>
        <time>2025-02-17T09:29:19Z</time>
      </trkpt>
      <trkpt lat="45.93497" lon="3.69028">
        <ele>1210</ele>
        <time>2025-02-17T09:29:37Z</time>
      </trkpt>
      <trkpt lat="45.93488" lon="3.69028">
        <ele>1211</ele>
        <time>2025-02-17T09:29:49Z</time>
      </trkpt>
      <trkpt lat="45.93474" lon="3.69037">
        <ele>1213</ele>
        <time>2025-02-17T09:30:09Z</time>
      </trkpt>
      <trkpt lat="45.93462" lon="3.6904">
        <ele>1214</ele>
        <time>2025-02-17T09:30:26Z</time>
      </trkpt>
      <trkpt lat="45.93445" lon="3.69043">
        <ele>1215</ele>
        <time>2025-02-17T09:30:48Z</time>
      </trkpt>
      <trkpt lat="45.93431" lon="3.6904">
        <ele>1216</ele>
        <time>2025-02-17T09:31:07Z</time>
      </trkpt>
      <trkpt lat="45.93427" lon="3.69046">
        <ele>1217</ele>
        <time>2025-02-17T09:31:15Z</time>
      </trkpt>
      <trkpt lat="45.93424" lon="3.69067">
        <ele>1220</ele>
        <time>2025-02-17T09:31:35Z</time>
      </trkpt>
      <trkpt lat="45.93418" lon="3.69075">
        <ele>1222</ele>
        <time>2025-02-17T09:31:46Z</time>
      </trkpt>
      <trkpt lat="45.93404" lon="3.69074">
        <ele>1222</ele>
        <time>2025-02-17T09:32:05Z</time>
      </trkpt>
      <trkpt lat="45.93393" lon="3.69068">
        <ele>1221</ele>
        <time>2025-02-17T09:32:20Z</time>
      </trkpt>
      <trkpt lat="45.93387" lon="3.69069">
        <ele>1221</ele>
        <time>2025-02-17T09:32:28Z</time>
      </trkpt>
      <trkpt lat="45.93384" lon="3.69067">
        <ele>1221</ele>
        <time>2025-02-17T09:32:33Z</time>
      </trkpt>
      <trkpt lat="45.93381" lon="3.69072">
        <ele>1222</ele>
        <time>2025-02-17T09:32:39Z</time>
      </trkpt>
      <trkpt lat="45.93379" lon="3.69089">
        <ele>1224</ele>
        <time>2025-02-17T09:32:55Z</time>
      </trkpt>
      <trkpt lat="45.93371" lon="3.69094">
        <ele>1226</ele>
        <time>2025-02-17T09:33:07Z</time>
      </trkpt>
      <trkpt lat="45.93366" lon="3.69093">
        <ele>1225</ele>
        <time>2025-02-17T09:33:13Z</time>
      </trkpt>
      <trkpt lat="45.93363" lon="3.69084">
        <ele>1224</ele>
        <time>2025-02-17T09:33:23Z</time>
      </trkpt>
      <trkpt lat="45.93364" lon="3.69095">
        <ele>1226</ele>
        <time>2025-02-17T09:33:33Z</time>
      </trkpt>
      <trkpt lat="45.93362" lon="3.69104">
        <ele>1228</ele>
        <time>2025-02-17T09:33:42Z</time>
      </trkpt>
      <trkpt lat="45.93349" lon="3.69119">
        <ele>1231</ele>
        <time>2025-02-17T09:34:04Z</time>
      </trkpt>
      <trkpt lat="45.93337" lon="3.69124">
        <ele>1233</ele>
        <time>2025-02-17T09:34:21Z</time>
      </trkpt>
      <trkpt lat="45.93335" lon="3.69132">
        <ele>1235</ele>
        <time>2025-02-17T09:34:28Z</time>
      </trkpt>
      <trkpt lat="45.93337" lon="3.69136">
        <ele>1236</ele>
        <time>2025-02-17T09:34:33Z</time>
      </trkpt>
      <trkpt lat="45.93329" lon="3.69147">
        <ele>1239</ele>
        <time>2025-02-17T09:34:48Z</time>
      </trkpt>
      <trkpt lat="45.93329" lon="3.69156">
        <ele>1241</ele>
        <time>2025-02-17T09:34:56Z</time>
      </trkpt>
      <trkpt lat="45.93326" lon="3.69163">
        <ele>1243</ele>
        <time>2025-02-17T09:35:04Z</time>
      </trkpt>
      <trkpt lat="45.93329" lon="3.69172">
        <ele>1244</ele>
        <time>2025-02-17T09:35:13Z</time>
      </trkpt>
      <trkpt lat="45.93321" lon="3.69183">
        <ele>1245</ele>
        <time>2025-02-17T09:35:28Z</time>
      </trkpt>
      <trkpt lat="45.93315" lon="3.692">
        <ele>1248</ele>
        <time>2025-02-17T09:35:45Z</time>
      </trkpt>
      <trkpt lat="45.93302" lon="3.6922">
        <ele>1251</ele>
        <time>2025-02-17T09:36:11Z</time>
      </trkpt>
      <trkpt lat="45.93298" lon="3.69241">
        <ele>1254</ele>
        <time>2025-02-17T09:36:31Z</time>
      </trkpt>
      <trkpt lat="45.93288" lon="3.69253">
        <ele>1256</ele>
        <time>2025-02-17T09:36:48Z</time>
      </trkpt>
      <trkpt lat="45.93251" lon="3.6928">
        <ele>1262</ele>
        <time>2025-02-17T09:37:44Z</time>
      </trkpt>
      <trkpt lat="45.93228" lon="3.69287">
        <ele>1265</ele>
        <time>2025-02-17T09:38:15Z</time>
      </trkpt>
      <trkpt lat="45.93211" lon="3.69306">
        <ele>1269</ele>
        <time>2025-02-17T09:38:44Z</time>
      </trkpt>
      <trkpt lat="45.93207" lon="3.69318">
        <ele>1270</ele>
        <time>2025-02-17T09:38:56Z</time>
      </trkpt>
      <trkpt lat="45.93202" lon="3.69323">
        <ele>1272</ele>
        <time>2025-02-17T09:39:04Z</time>
      </trkpt>
      <trkpt lat="45.93194" lon="3.69328">
        <ele>1273</ele>
        <time>2025-02-17T09:39:16Z</time>
      </trkpt>
      <trkpt lat="45.9318" lon="3.69331">
        <ele>1276</ele>
        <time>2025-02-17T09:39:35Z</time>
      </trkpt>
      <trkpt lat="45.9317" lon="3.69353">
        <ele>1278</ele>
        <time>2025-02-17T09:39:59Z</time>
      </trkpt>
      <trkpt lat="45.9316" lon="3.69364">
        <ele>1279</ele>
        <time>2025-02-17T09:40:16Z</time>
      </trkpt>
      <trkpt lat="45.9316" lon="3.69368">
        <ele>1279</ele>
        <time>2025-02-17T09:40:20Z</time>
      </trkpt>
      <trkpt lat="45.93155" lon="3.69374">
        <ele>1279</ele>
        <time>2025-02-17T09:40:29Z</time>
      </trkpt>
      <trkpt lat="45.93126" lon="3.69382">
        <ele>1281</ele>
        <time>2025-02-17T09:41:08Z</time>
      </trkpt>
      <trkpt lat="45.93117" lon="3.69379">
        <ele>1282</ele>
        <time>2025-02-17T09:41:20Z</time>
      </trkpt>
      <trkpt lat="45.93108" lon="3.6938">
        <ele>1282</ele>
        <time>2025-02-17T09:41:32Z</time>
      </trkpt>
      <trkpt lat="45.93098" lon="3.69389">
        <ele>1283</ele>
        <time>2025-02-17T09:41:48Z</time>
      </trkpt>
      <trkpt lat="45.93092" lon="3.69391">
        <ele>1284</ele>
        <time>2025-02-17T09:41:56Z</time>
      </trkpt>
      <trkpt lat="45.93083" lon="3.69389">
        <ele>1284</ele>
        <time>2025-02-17T09:42:08Z</time>
      </trkpt>
      <trkpt lat="45.93071" lon="3.69399">
        <ele>1283</ele>
        <time>2025-02-17T09:42:27Z</time>
      </trkpt>
      <trkpt lat="45.93068" lon="3.69413">
        <ele>1283</ele>
        <time>2025-02-17T09:42:41Z</time>
      </trkpt>
      <trkpt lat="45.93073" lon="3.69424">
        <ele>1284</ele>
        <time>2025-02-17T09:42:53Z</time>
      </trkpt>
      <trkpt lat="45.93067" lon="3.6943">
        <ele>1283</ele>
        <time>2025-02-17T09:43:02Z</time>
      </trkpt>
      <trkpt lat="45.93064" lon="3.69443">
        <ele>1282</ele>
        <time>2025-02-17T09:43:15Z</time>
      </trkpt>
      <trkpt lat="45.93065" lon="3.69451">
        <ele>1282</ele>
        <time>2025-02-17T09:43:23Z</time>
      </trkpt>
      <trkpt lat="45.9306" lon="3.69471">
        <ele>1281</ele>
        <time>2025-02-17T09:43:42Z</time>
      </trkpt>
      <trkpt lat="45.93052" lon="3.69545">
        <ele>1276</ele>
        <time>2025-02-17T09:44:52Z</time>
      </trkpt>
      <trkpt lat="45.93041" lon="3.69569">
        <ele>1273</ele>
        <time>2025-02-17T09:45:19Z</time>
      </trkpt>
      <trkpt lat="45.93043" lon="3.69597">
        <ele>1271</ele>
        <time>2025-02-17T09:45:45Z</time>
      </trkpt>
      <trkpt lat="45.93051" lon="3.69617">
        <ele>1269</ele>
        <time>2025-02-17T09:46:06Z</time>
      </trkpt>
      <trkpt lat="45.93041" lon="3.69648">
        <ele>1264</ele>
        <time>2025-02-17T09:46:38Z</time>
      </trkpt>
      <trkpt lat="45.93034" lon="3.69662">
        <ele>1262</ele>
        <time>2025-02-17T09:46:54Z</time>
      </trkpt>
      <trkpt lat="45.93041" lon="3.69676">
        <ele>1261</ele>
        <time>2025-02-17T09:47:10Z</time>
      </trkpt>
      <trkpt lat="45.93054" lon="3.69683">
        <ele>1261</ele>
        <time>2025-02-17T09:47:28Z</time>
      </trkpt>
      <trkpt lat="45.93068" lon="3.69712">
        <ele>1258</ele>
        <time>2025-02-17T09:48:01Z</time>
      </trkpt>
      <trkpt lat="45.93089" lon="3.69729">
        <ele>1256</ele>
        <time>2025-02-17T09:48:33Z</time>
      </trkpt>
      <trkpt lat="45.93103" lon="3.69749">
        <ele>1252</ele>
        <time>2025-02-17T09:49:00Z</time>
      </trkpt>
      <trkpt lat="45.93103" lon="3.69758">
        <ele>1251</ele>
        <time>2025-02-17T09:49:08Z</time>
      </trkpt>
      <trkpt lat="45.93108" lon="3.69774">
        <ele>1249</ele>
        <time>2025-02-17T09:49:24Z</time>
      </trkpt>
      <trkpt lat="45.93109" lon="3.69793">
        <ele>1246</ele>
        <time>2025-02-17T09:49:42Z</time>
      </trkpt>
      <trkpt lat="45.93113" lon="3.69808">
        <ele>1244</ele>
        <time>2025-02-17T09:49:57Z</time>
      </trkpt>
      <trkpt lat="45.93127" lon="3.69827">
        <ele>1241</ele>
        <time>2025-02-17T09:50:23Z</time>
      </trkpt>
      <trkpt lat="45.93133" lon="3.69849">
        <ele>1239</ele>
        <time>2025-02-17T09:50:45Z</time>
      </trkpt>
      <trkpt lat="45.93135" lon="3.69875">
        <ele>1238</ele>
        <time>2025-02-17T09:51:09Z</time>
      </trkpt>
      <trkpt lat="45.93128" lon="3.69902">
        <ele>1236</ele>
        <time>2025-02-17T09:51:36Z</time>
      </trkpt>
      <trkpt lat="45.93095" lon="3.69971">
        <ele>1235</ele>
        <time>2025-02-17T09:52:53Z</time>
      </trkpt>
      <trkpt lat="45.9309" lon="3.69977">
        <ele>1235</ele>
        <time>2025-02-17T09:53:02Z</time>
      </trkpt>
      <trkpt lat="45.93082" lon="3.69981">
        <ele>1235</ele>
        <time>2025-02-17T09:53:13Z</time>
      </trkpt>
      <trkpt lat="45.93076" lon="3.69981">
        <ele>1234</ele>
        <time>2025-02-17T09:53:21Z</time>
      </trkpt>
      <trkpt lat="45.93053" lon="3.69976">
        <ele>1233</ele>
        <time>2025-02-17T09:53:52Z</time>
      </trkpt>
      <trkpt lat="45.93039" lon="3.69985">
        <ele>1231</ele>
        <time>2025-02-17T09:54:13Z</time>
      </trkpt>
      <trkpt lat="45.93015" lon="3.69995">
        <ele>1229</ele>
        <time>2025-02-17T09:54:46Z</time>
      </trkpt>
      <trkpt lat="45.93002" lon="3.69996">
        <ele>1227</ele>
        <time>2025-02-17T09:55:04Z</time>
      </trkpt>
      <trkpt lat="45.92997" lon="3.69994">
        <ele>1227</ele>
        <time>2025-02-17T09:55:10Z</time>
      </trkpt>
      <trkpt lat="45.92979" lon="3.69974">
        <ele>1224</ele>
        <time>2025-02-17T09:55:41Z</time>
      </trkpt>
      <trkpt lat="45.92967" lon="3.69966">
        <ele>1222</ele>
        <time>2025-02-17T09:55:58Z</time>
      </trkpt>
      <trkpt lat="45.92965" lon="3.69961">
        <ele>1222</ele>
        <time>2025-02-17T09:56:04Z</time>
      </trkpt>
      <trkpt lat="45.92954" lon="3.69952">
        <ele>1221</ele>
        <time>2025-02-17T09:56:21Z</time>
      </trkpt>
      <trkpt lat="45.92943" lon="3.69934">
        <ele>1221</ele>
        <time>2025-02-17T09:56:43Z</time>
      </trkpt>
      <trkpt lat="45.9293" lon="3.6992">
        <ele>1220</ele>
        <time>2025-02-17T09:57:05Z</time>
      </trkpt>
      <trkpt lat="45.92918" lon="3.69898">
        <ele>1220</ele>
        <time>2025-02-17T09:57:31Z</time>
      </trkpt>
      <trkpt lat="45.92897" lon="3.69889">
        <ele>1216</ele>
        <time>2025-02-17T09:58:00Z</time>
      </trkpt>
      <trkpt lat="45.92868" lon="3.69862">
        <ele>1211</ele>
        <time>2025-02-17T09:58:46Z</time>
      </trkpt>
      <trkpt lat="45.92842" lon="3.69815">
        <ele>1209</ele>
        <time>2025-02-17T09:59:42Z</time>
      </trkpt>
      <trkpt lat="45.92839" lon="3.69812">
        <ele>1208</ele>
        <time>2025-02-17T09:59:47Z</time>
      </trkpt>
      <trkpt lat="45.92833" lon="3.69811">
        <ele>1207</ele>
        <time>2025-02-17T09:59:55Z</time>
      </trkpt>
      <trkpt lat="45.9283" lon="3.69813">
        <ele>1206</ele>
        <time>2025-02-17T09:59:59Z</time>
      </trkpt>
      <trkpt lat="45.92825" lon="3.69832">
        <ele>1205</ele>
        <time>2025-02-17T10:00:18Z</time>
      </trkpt>
      <trkpt lat="45.92826" lon="3.6985">
        <ele>1203</ele>
        <time>2025-02-17T10:00:35Z</time>
      </trkpt>
      <trkpt lat="45.92832" lon="3.69862">
        <ele>1203</ele>
        <time>2025-02-17T10:00:48Z</time>
      </trkpt>
      <trkpt lat="45.92831" lon="3.69894">
        <ele>1200</ele>
        <time>2025-02-17T10:01:18Z</time>
      </trkpt>
      <trkpt lat="45.92838" lon="3.69928">
        <ele>1197</ele>
        <time>2025-02-17T10:01:51Z</time>
      </trkpt>
      <trkpt lat="45.92842" lon="3.69938">
        <ele>1197</ele>
        <time>2025-02-17T10:02:02Z</time>
      </trkpt>
      <trkpt lat="45.92845" lon="3.69958">
        <ele>1195</ele>
        <time>2025-02-17T10:02:21Z</time>
      </trkpt>
      <trkpt lat="45.92856" lon="3.69989">
        <ele>1193</ele>
        <time>2025-02-17T10:02:53Z</time>
      </trkpt>
      <trkpt lat="45.92864" lon="3.70003">
        <ele>1193</ele>
        <time>2025-02-17T10:03:10Z</time>
      </trkpt>
      <trkpt lat="45.92878" lon="3.70019">
        <ele>1195</ele>
        <time>2025-02-17T10:03:34Z</time>
      </trkpt>
      <trkpt lat="45.92883" lon="3.70057">
        <ele>1192</ele>
        <time>2025-02-17T10:04:10Z</time>
      </trkpt>
      <trkpt lat="45.92882" lon="3.70105">
        <ele>1188</ele>
        <time>2025-02-17T10:04:54Z</time>
      </trkpt>
      <trkpt lat="45.92862" lon="3.70159">
        <ele>1180</ele>
        <time>2025-02-17T10:05:51Z</time>
      </trkpt>
      <trkpt lat="45.92845" lon="3.70225">
        <ele>1174</ele>
        <time>2025-02-17T10:06:56Z</time>
      </trkpt>
      <trkpt lat="45.92834" lon="3.70284">
        <ele>1171</ele>
        <time>2025-02-17T10:07:53Z</time>
      </trkpt>
      <trkpt lat="45.92829" lon="3.7034">
        <ele>1169</ele>
        <time>2025-02-17T10:08:45Z</time>
      </trkpt>
      <trkpt lat="45.92831" lon="3.70364">
        <ele>1169</ele>
        <time>2025-02-17T10:09:08Z</time>
      </trkpt>
      <trkpt lat="45.9283" lon="3.70391">
        <ele>1168</ele>
        <time>2025-02-17T10:09:33Z</time>
      </trkpt>
      <trkpt lat="45.92838" lon="3.70434">
        <ele>1169</ele>
        <time>2025-02-17T10:10:14Z</time>
      </trkpt>
      <trkpt lat="45.9284" lon="3.70471">
        <ele>1168</ele>
        <time>2025-02-17T10:10:49Z</time>
      </trkpt>
      <trkpt lat="45.92836" lon="3.70503">
        <ele>1167</ele>
        <time>2025-02-17T10:11:19Z</time>
      </trkpt>
      <trkpt lat="45.92831" lon="3.70519">
        <ele>1166</ele>
        <time>2025-02-17T10:11:35Z</time>
      </trkpt>
      <trkpt lat="45.92831" lon="3.70532">
        <ele>1167</ele>
        <time>2025-02-17T10:11:47Z</time>
      </trkpt>
      <trkpt lat="45.92837" lon="3.70554">
        <ele>1168</ele>
        <time>2025-02-17T10:12:09Z</time>
      </trkpt>
      <trkpt lat="45.92838" lon="3.70572">
        <ele>1168</ele>
        <time>2025-02-17T10:12:26Z</time>
      </trkpt>
      <trkpt lat="45.92852" lon="3.70609">
        <ele>1171</ele>
        <time>2025-02-17T10:13:05Z</time>
      </trkpt>
      <trkpt lat="45.92862" lon="3.70654">
        <ele>1172</ele>
        <time>2025-02-17T10:13:49Z</time>
      </trkpt>
      <trkpt lat="45.92875" lon="3.70695">
        <ele>1173</ele>
        <time>2025-02-17T10:14:31Z</time>
      </trkpt>
      <trkpt lat="45.92873" lon="3.70705">
        <ele>1174</ele>
        <time>2025-02-17T10:14:40Z</time>
      </trkpt>
      <trkpt lat="45.92873" lon="3.70702">
        <ele>1174</ele>
        <time>2025-02-17T10:14:43Z</time>
      </trkpt>
      <trkpt lat="45.92878" lon="3.70748">
        <ele>1175</ele>
        <time>2025-02-17T10:15:26Z</time>
      </trkpt>
      <trkpt lat="45.92871" lon="3.70773">
        <ele>1176</ele>
        <time>2025-02-17T10:15:51Z</time>
      </trkpt>
      <trkpt lat="45.9281" lon="3.70818">
        <ele>1180</ele>
        <time>2025-02-17T10:17:23Z</time>
      </trkpt>
      <trkpt lat="45.9277" lon="3.70863">
        <ele>1180</ele>
        <time>2025-02-17T10:18:31Z</time>
      </trkpt>
      <trkpt lat="45.92734" lon="3.70895">
        <ele>1180</ele>
        <time>2025-02-17T10:19:27Z</time>
      </trkpt>
      <trkpt lat="45.92705" lon="3.70912">
        <ele>1179</ele>
        <time>2025-02-17T10:20:09Z</time>
      </trkpt>
      <trkpt lat="45.92678" lon="3.70933">
        <ele>1179</ele>
        <time>2025-02-17T10:20:50Z</time>
      </trkpt>
      <trkpt lat="45.92629" lon="3.71029">
        <ele>1184</ele>
        <time>2025-02-17T10:22:40Z</time>
      </trkpt>
      <trkpt lat="45.92616" lon="3.71061">
        <ele>1183</ele>
        <time>2025-02-17T10:23:15Z</time>
      </trkpt>
      <trkpt lat="45.92574" lon="3.7113">
        <ele>1180</ele>
        <time>2025-02-17T10:24:40Z</time>
      </trkpt>
      <trkpt lat="45.92556" lon="3.71173">
        <ele>1179</ele>
        <time>2025-02-17T10:25:26Z</time>
      </trkpt>
      <trkpt lat="45.92542" lon="3.71236">
        <ele>1180</ele>
        <time>2025-02-17T10:26:28Z</time>
      </trkpt>
      <trkpt lat="45.92535" lon="3.71258">
        <ele>1180</ele>
        <time>2025-02-17T10:26:50Z</time>
      </trkpt>
      <trkpt lat="45.92531" lon="3.71329">
        <ele>1180</ele>
        <time>2025-02-17T10:27:56Z</time>
      </trkpt>
      <trkpt lat="45.92517" lon="3.71403">
        <ele>1176</ele>
        <time>2025-02-17T10:29:08Z</time>
      </trkpt>
      <trkpt lat="45.92507" lon="3.71424">
        <ele>1173</ele>
        <time>2025-02-17T10:29:31Z</time>
      </trkpt>
      <trkpt lat="45.92505" lon="3.71436">
        <ele>1173</ele>
        <time>2025-02-17T10:29:43Z</time>
      </trkpt>
      <trkpt lat="45.92458" lon="3.71512">
        <ele>1165</ele>
        <time>2025-02-17T10:31:17Z</time>
      </trkpt>
      <trkpt lat="45.92436" lon="3.71554">
        <ele>1161</ele>
        <time>2025-02-17T10:32:06Z</time>
      </trkpt>
      <trkpt lat="45.9243" lon="3.71594">
        <ele>1160</ele>
        <time>2025-02-17T10:32:44Z</time>
      </trkpt>
      <trkpt lat="45.92413" lon="3.71657">
        <ele>1156</ele>
        <time>2025-02-17T10:33:47Z</time>
      </trkpt>
      <trkpt lat="45.92414" lon="3.71686">
        <ele>1155</ele>
        <time>2025-02-17T10:34:14Z</time>
      </trkpt>
      <trkpt lat="45.92412" lon="3.71695">
        <ele>1154</ele>
        <time>2025-02-17T10:34:22Z</time>
      </trkpt>
      <trkpt lat="45.92415" lon="3.71752">
        <ele>1151</ele>
        <time>2025-02-17T10:35:15Z</time>
      </trkpt>
      <trkpt lat="45.92413" lon="3.71787">
        <ele>1149</ele>
        <time>2025-02-17T10:35:48Z</time>
      </trkpt>
      <trkpt lat="45.92409" lon="3.71819">
        <ele>1147</ele>
        <time>2025-02-17T10:36:18Z</time>
      </trkpt>
      <trkpt lat="45.92393" lon="3.71884">
        <ele>1139</ele>
        <time>2025-02-17T10:37:22Z</time>
      </trkpt>
      <trkpt lat="45.92375" lon="3.71917">
        <ele>1134</ele>
        <time>2025-02-17T10:38:01Z</time>
      </trkpt>
      <trkpt lat="45.9237" lon="3.71935">
        <ele>1134</ele>
        <time>2025-02-17T10:38:19Z</time>
      </trkpt>
      <trkpt lat="45.92355" lon="3.71966">
        <ele>1132</ele>
        <time>2025-02-17T10:38:54Z</time>
      </trkpt>
      <trkpt lat="45.92343" lon="3.72003">
        <ele>1131</ele>
        <time>2025-02-17T10:39:32Z</time>
      </trkpt>
      <trkpt lat="45.92289" lon="3.72131">
        <ele>1126</ele>
        <time>2025-02-17T10:41:51Z</time>
      </trkpt>
      <trkpt lat="45.92287" lon="3.7214">
        <ele>1126</ele>
        <time>2025-02-17T10:42:00Z</time>
      </trkpt>
      <trkpt lat="45.92257" lon="3.72191">
        <ele>1124</ele>
        <time>2025-02-17T10:43:02Z</time>
      </trkpt>
      <trkpt lat="45.92252" lon="3.72205">
        <ele>1124</ele>
        <time>2025-02-17T10:43:16Z</time>
      </trkpt>
      <trkpt lat="45.9224" lon="3.72226">
        <ele>1124</ele>
        <time>2025-02-17T10:43:42Z</time>
      </trkpt>
      <trkpt lat="45.92231" lon="3.72257">
        <ele>1124</ele>
        <time>2025-02-17T10:44:13Z</time>
      </trkpt>
      <trkpt lat="45.92223" lon="3.72275">
        <ele>1125</ele>
        <time>2025-02-17T10:44:33Z</time>
      </trkpt>
      <trkpt lat="45.92214" lon="3.72309">
        <ele>1125</ele>
        <time>2025-02-17T10:45:06Z</time>
      </trkpt>
      <trkpt lat="45.92201" lon="3.72337">
        <ele>1125</ele>
        <time>2025-02-17T10:45:38Z</time>
      </trkpt>
      <trkpt lat="45.92159" lon="3.72415">
        <ele>1123</ele>
        <time>2025-02-17T10:47:09Z</time>
      </trkpt>
      <trkpt lat="45.92138" lon="3.72441">
        <ele>1122</ele>
        <time>2025-02-17T10:47:46Z</time>
      </trkpt>
      <trkpt lat="45.9213" lon="3.72457">
        <ele>1121</ele>
        <time>2025-02-17T10:48:04Z</time>
      </trkpt>
      <trkpt lat="45.92117" lon="3.7247">
        <ele>1119</ele>
        <time>2025-02-17T10:48:26Z</time>
      </trkpt>
      <trkpt lat="45.921" lon="3.72475">
        <ele>1117</ele>
        <time>2025-02-17T10:48:49Z</time>
      </trkpt>
      <trkpt lat="45.92092" lon="3.72484">
        <ele>1115</ele>
        <time>2025-02-17T10:49:02Z</time>
      </trkpt>
      <trkpt lat="45.92083" lon="3.72487">
        <ele>1114</ele>
        <time>2025-02-17T10:49:15Z</time>
      </trkpt>
      <trkpt lat="45.92079" lon="3.72502">
        <ele>1113</ele>
        <time>2025-02-17T10:49:30Z</time>
      </trkpt>
    </trkseg>
  </trk>
</gpx>